Time;durP1;ratioP1;P1;durP2;ratioP2;P2;SDS_P1;SDS_P2;PMS_P1;PMS_P2;Temp;Humidity;BMP_temperature;BMP_pressure;BME280_temperature;BME280_humidity;BME280_pressure;Samples;Min_cycle;Max_cycle;Signal;HPM_P1;HPM_P2
2023/07/13 00:01:49;;;;;;;7.10;3.70;;;18.00;99.90;;;;;;5029558;28;20044;-62
2023/07/13 00:04:18;;;;;;;5.50;3.72;;;18.00;99.90;;;;;;5031281;28;20121;-62
2023/07/13 00:06:46;;;;;;;6.15;4.20;;;17.90;99.90;;;;;;5030321;28;20048;-62
2023/07/13 00:09:18;;;;;;;7.13;3.90;;;17.90;99.90;;;;;;5026493;28;20052;-62
2023/07/13 00:11:47;;;;;;;3.35;2.90;;;17.90;99.90;;;;;;5031053;28;20048;-62
2023/07/13 00:14:15;;;;;;;8.18;3.72;;;17.90;99.90;;;;;;5031298;28;20124;-62
2023/07/13 00:16:45;;;;;;;5.40;3.17;;;17.90;99.90;;;;;;5030128;28;20037;-62
2023/07/13 00:19:13;;;;;;;4.60;2.90;;;17.90;99.90;;;;;;5031730;28;20096;-62
2023/07/13 00:21:41;;;;;;;4.15;3.10;;;17.90;99.90;;;;;;5029652;28;20037;-60
2023/07/13 00:24:12;;;;;;;3.72;3.00;;;17.90;99.90;;;;;;5031529;28;20041;-62
2023/07/13 00:26:40;;;;;;;6.78;3.20;;;17.90;99.90;;;;;;5030414;28;20124;-62
2023/07/13 00:29:08;;;;;;;5.68;3.33;;;17.90;99.90;;;;;;5013263;28;20506;-61
2023/07/13 00:31:36;;;;;;;5.78;3.20;;;17.90;99.90;;;;;;5009080;28;20384;-64
2023/07/13 00:34:04;;;;;;;4.13;3.50;;;17.90;99.90;;;;;;5009661;28;20054;-62
2023/07/13 00:36:31;;;;;;;4.53;2.88;;;17.90;99.90;;;;;;5004646;28;20046;-63
2023/07/13 00:38:57;;;;;;;5.45;2.60;;;17.90;99.90;;;;;;5030386;28;20075;-62
2023/07/13 00:41:24;;;;;;;4.35;2.72;;;17.90;99.90;;;;;;5027499;28;20116;-63
2023/07/13 00:43:51;;;;;;;3.38;2.63;;;17.80;99.90;;;;;;5030119;28;20440;-63
2023/07/13 00:46:25;;;;;;;5.82;2.85;;;17.80;99.90;;;;;;5013414;28;20438;-63
2023/07/13 00:48:54;;;;;;;3.78;2.53;;;17.80;99.90;;;;;;5026118;28;20046;-63
2023/07/13 00:51:26;;;;;;;3.33;2.25;;;17.80;99.90;;;;;;5030600;28;20513;-63
2023/07/13 00:53:58;;;;;;;6.03;3.22;;;17.70;99.90;;;;;;5030381;28;20486;-64
2023/07/13 00:56:26;;;;;;;3.65;2.17;;;17.70;99.90;;;;;;5028688;28;20038;-62
2023/07/13 00:58:53;;;;;;;3.25;2.30;;;17.70;99.90;;;;;;4999216;28;20120;-63
2023/07/13 01:01:20;;;;;;;3.63;2.40;;;17.80;99.90;;;;;;5027036;28;20051;-63
2023/07/13 01:03:47;;;;;;;;;;;17.70;99.90;;;;;;5033807;28;20776;-63
2023/07/13 01:06:14;;;;;;;3.88;2.22;;;17.60;99.90;;;;;;5013445;28;20394;-63
2023/07/13 01:08:41;;;;;;;;;;;17.60;99.90;;;;;;5033952;28;20080;-63
2023/07/13 01:11:08;;;;;;;4.28;2.38;;;17.60;99.90;;;;;;5025809;28;19928;-62
2023/07/13 01:13:35;;;;;;;1.98;1.73;;;17.60;99.90;;;;;;5008894;28;20655;-64
2023/07/13 01:16:11;;;;;;;3.50;2.30;;;17.60;99.90;;;;;;5032871;28;20052;-63
2023/07/13 01:18:38;;;;;;;3.13;1.80;;;17.60;99.90;;;;;;5024492;28;20030;-63
2023/07/13 01:21:05;;;;;;;5.30;2.15;;;17.60;99.90;;;;;;5034640;28;20120;-63
2023/07/13 01:23:32;;;;;;;2.72;1.85;;;17.60;99.90;;;;;;5013997;28;20042;-64
2023/07/13 01:26:00;;;;;;;3.15;1.60;;;17.70;99.90;;;;;;5034423;28;20418;-61
2023/07/13 01:28:27;;;;;;;;;;;17.60;99.90;;;;;;5030335;28;20064;-63
2023/07/13 01:30:56;;;;;;;3.20;1.60;;;17.60;99.90;;;;;;5027440;28;20016;-63
2023/07/13 01:33:23;;;;;;;2.25;1.48;;;17.70;99.90;;;;;;5015194;28;20290;-63
2023/07/13 01:35:50;;;;;;;3.63;1.52;;;17.60;99.90;;;;;;5012526;28;20064;-63
2023/07/13 01:38:20;;;;;;;1.70;1.38;;;17.70;99.90;;;;;;5023326;28;20052;-63
2023/07/13 01:40:47;;;;;;;2.42;1.50;;;17.70;99.90;;;;;;5032508;28;20049;-64
2023/07/13 01:43:14;;;;;;;2.95;1.38;;;17.70;99.90;;;;;;5031539;28;20132;-64
2023/07/13 01:45:43;;;;;;;1.95;1.48;;;17.70;99.90;;;;;;5004928;28;20522;-63
2023/07/13 01:48:13;;;;;;;2.15;1.50;;;17.70;99.90;;;;;;5010902;28;20056;-63
2023/07/13 01:50:41;;;;;;;2.30;1.40;;;17.70;99.90;;;;;;5018548;28;20125;-63
2023/07/13 01:53:08;;;;;;;;;;;17.70;99.90;;;;;;5033393;28;20100;-64
2023/07/13 01:55:35;;;;;;;2.35;1.30;;;17.70;99.90;;;;;;5016820;28;19928;-63
2023/07/13 01:58:02;;;;;;;2.58;1.63;;;17.70;99.90;;;;;;5008692;28;20104;-63
2023/07/13 02:00:30;;;;;;;2.50;1.20;;;17.70;99.90;;;;;;5014238;28;20041;-64
2023/07/13 02:02:57;;;;;;;;;;;17.70;99.90;;;;;;5015830;28;20046;-63
2023/07/13 02:05:24;;;;;;;1.38;1.20;;;17.70;99.90;;;;;;5015194;28;19945;-61
2023/07/13 02:07:51;;;;;;;1.20;1.00;;;17.70;99.90;;;;;;5033725;28;20048;-62
2023/07/13 02:10:18;;;;;;;1.98;1.40;;;17.80;99.90;;;;;;5015240;28;20053;-63
2023/07/13 02:12:45;;;;;;;1.45;1.20;;;17.70;99.90;;;;;;5013944;28;20452;-63
2023/07/13 02:15:12;;;;;;;3.50;1.55;;;17.70;99.90;;;;;;5018644;28;20038;-64
2023/07/13 02:17:38;;;;;;;3.70;1.92;;;17.80;99.90;;;;;;4999045;28;20041;-63
2023/07/13 02:20:07;;;;;;;3.00;1.52;;;17.60;99.90;;;;;;5031888;28;20119;-64
2023/07/13 02:22:33;;;;;;;3.42;1.90;;;17.60;99.90;;;;;;5011640;28;20041;-64
2023/07/13 02:25:01;;;;;;;3.65;2.03;;;17.50;99.90;;;;;;5027816;28;20046;-64
2023/07/13 02:27:28;;;;;;;2.60;1.88;;;17.50;99.90;;;;;;5031561;28;20520;-63
2023/07/13 02:29:54;;;;;;;4.55;2.10;;;17.40;99.90;;;;;;5032382;28;20056;-63
2023/07/13 02:32:21;;;;;;;6.30;2.75;;;17.40;99.90;;;;;;5031286;28;20046;-63
2023/07/13 02:34:50;;;;;;;4.07;2.55;;;17.40;99.90;;;;;;5011626;28;20066;-63
2023/07/13 02:37:17;;;;;;;3.97;2.70;;;17.60;99.90;;;;;;5029249;28;20049;-63
2023/07/13 02:39:44;;;;;;;4.93;2.42;;;17.40;99.90;;;;;;5011301;28;20048;-63
2023/07/13 02:42:11;;;;;;;8.07;2.90;;;17.30;99.90;;;;;;5011303;28;20048;-63
2023/07/13 02:44:37;;;;;;;4.07;2.63;;;17.30;99.90;;;;;;5032310;28;20509;-64
2023/07/13 02:47:04;;;;;;;6.15;2.70;;;17.30;99.90;;;;;;5032872;28;20049;-64
2023/07/13 02:49:31;;;;;;;5.90;2.90;;;17.30;99.90;;;;;;5032261;28;20045;-64
2023/07/13 02:51:58;;;;;;;3.20;2.40;;;17.20;99.90;;;;;;5032874;28;20049;-64
2023/07/13 02:54:25;;;;;;;5.32;2.47;;;17.20;99.90;;;;;;5032702;28;20509;-64
2023/07/13 02:56:51;;;;;;;4.55;2.55;;;17.20;99.90;;;;;;5013119;28;20041;-64
2023/07/13 02:59:18;;;;;;;4.13;2.33;;;17.20;99.90;;;;;;5015525;28;20166;-64
2023/07/13 03:01:45;;;;;;;2.72;2.40;;;17.20;99.90;;;;;;5032104;28;20025;-64
2023/07/13 03:04:12;;;;;;;6.05;2.40;;;17.20;99.90;;;;;;5033185;28;20049;-63
2023/07/13 03:06:40;;;;;;;4.13;2.30;;;17.20;99.90;;;;;;5030281;28;20561;-63
2023/07/13 03:09:07;;;;;;;3.50;2.25;;;17.10;99.90;;;;;;5032972;28;20037;-64
2023/07/13 03:11:38;;;;;;;2.70;2.05;;;17.10;99.90;;;;;;5010316;28;20045;-64
2023/07/13 03:14:15;;;;;;;;;;;17.20;99.90;;;;;;5002998;28;20049;-63
2023/07/13 03:16:42;;;;;;;4.63;2.05;;;17.20;99.90;;;;;;5013783;28;19975;-64
2023/07/13 03:19:09;;;;;;;4.80;2.03;;;17.20;99.90;;;;;;5010316;28;20046;-64
2023/07/13 03:21:36;;;;;;;7.10;2.30;;;17.20;99.90;;;;;;5021954;28;20045;-63
2023/07/13 03:24:03;;;;;;;3.67;2.30;;;17.20;99.90;;;;;;5031175;28;20045;-64
2023/07/13 03:26:30;;;;;;;4.65;2.03;;;17.20;99.90;;;;;;5013288;28;20041;-63
2023/07/13 03:28:57;;;;;;;2.20;1.85;;;17.20;99.90;;;;;;5031503;28;20230;-64
2023/07/13 03:31:29;;;;;;;3.72;2.30;;;17.20;99.90;;;;;;5006340;28;20049;-64
2023/07/13 03:33:57;;;;;;;6.90;2.28;;;17.20;99.90;;;;;;5030581;28;20056;-63
2023/07/13 03:36:27;;;;;;;4.38;1.65;;;17.20;99.90;;;;;;5013220;28;20170;-63
2023/07/13 03:38:59;;;;;;;3.13;1.90;;;17.20;99.90;;;;;;5006448;28;20770;-63
2023/07/13 03:41:34;;;;;;;3.03;1.90;;;17.10;99.90;;;;;;5013911;28;20084;-63
2023/07/13 03:44:01;;;;;;;2.08;1.52;;;17.10;99.90;;;;;;5031169;28;20096;-63
2023/07/13 03:46:28;;;;;;;2.38;1.65;;;17.10;99.90;;;;;;5005937;28;20061;-63
2023/07/13 03:48:56;;;;;;;2.53;1.33;;;17.00;99.90;;;;;;5013616;28;20053;-63
2023/07/13 03:51:23;;;;;;;2.63;1.73;;;17.00;99.90;;;;;;5014311;28;20048;-63
2023/07/13 03:53:50;;;;;;;;;;;17.00;99.90;;;;;;5031297;28;20049;-64
2023/07/13 03:56:19;;;;;;;2.85;2.00;;;17.00;99.90;;;;;;5010498;28;19922;-63
2023/07/13 03:58:48;;;;;;;3.20;2.10;;;17.00;99.90;;;;;;4999213;28;20065;-64
2023/07/13 04:01:21;;;;;;;3.05;2.10;;;17.10;99.90;;;;;;5002799;28;20053;-64
2023/07/13 04:03:49;;;;;;;5.85;1.48;;;17.10;99.90;;;;;;5013141;28;20325;-63
2023/07/13 04:06:23;;;;;;;7.10;1.85;;;17.00;99.90;;;;;;5012227;28;21541;-63
2023/07/13 04:08:52;;;;;;;3.00;1.63;;;17.00;99.90;;;;;;5032028;28;20490;-64
2023/07/13 04:11:21;;;;;;;2.35;1.48;;;17.00;99.90;;;;;;5009820;28;20042;-63
2023/07/13 04:13:48;;;;;;;2.85;1.75;;;17.00;99.90;;;;;;5031256;28;20045;-64
2023/07/13 04:16:17;;;;;;;2.85;1.70;;;17.00;99.90;;;;;;5009299;28;20076;-64
2023/07/13 04:18:45;;;;;;;7.53;2.53;;;17.00;99.90;;;;;;5022323;28;20045;-64
2023/07/13 04:21:12;;;;;;;4.05;1.77;;;17.00;99.90;;;;;;5028423;28;20042;-63
2023/07/13 04:23:40;;;;;;;4.38;2.10;;;17.00;99.90;;;;;;5031829;28;20045;-64
2023/07/13 04:26:07;;;;;;;6.22;1.70;;;17.00;99.90;;;;;;5030378;28;20069;-63
2023/07/13 04:28:34;;;;;;;2.58;1.40;;;17.10;99.90;;;;;;5031049;28;20477;-64
2023/07/13 04:31:01;;;;;;;;;;;17.10;99.90;;;;;;5022807;28;20049;-64
2023/07/13 04:33:27;;;;;;;5.60;3.03;;;17.10;99.90;;;;;;5015123;28;19922;-64
2023/07/13 04:35:59;;;;;;;3.10;1.80;;;17.00;99.90;;;;;;5022241;28;20060;-64
2023/07/13 04:38:30;;;;;;;4.30;1.48;;;17.10;99.90;;;;;;5030211;28;20043;-63
2023/07/13 04:41:00;;;;;;;6.20;1.60;;;17.10;99.90;;;;;;5023534;28;20051;-64
2023/07/13 04:43:28;;;;;;;2.45;1.45;;;17.10;99.90;;;;;;5030284;28;20103;-64
2023/07/13 04:45:56;;;;;;;2.55;1.80;;;17.20;99.90;;;;;;5023253;28;20056;-63
2023/07/13 04:48:23;;;;;;;2.00;1.27;;;17.20;99.90;;;;;;5014746;28;20499;-64
2023/07/13 04:50:58;;;;;;;2.35;1.63;;;17.20;99.90;;;;;;5030268;28;20041;-64
2023/07/13 04:53:26;;;;;;;6.93;2.00;;;17.20;99.90;;;;;;5030566;28;20359;-64
2023/07/13 04:55:53;;;;;;;1.80;1.20;;;17.30;99.90;;;;;;5030518;28;20120;-64
2023/07/13 04:58:21;;;;;;;3.63;1.45;;;17.30;99.90;;;;;;5030975;28;20041;-64
2023/07/13 05:00:48;;;;;;;3.35;1.23;;;17.30;99.90;;;;;;5029468;28;20121;-64
2023/07/13 05:03:15;;;;;;;2.63;1.67;;;17.30;99.90;;;;;;5030978;28;20045;-64
2023/07/13 05:05:43;;;;;;;6.53;2.03;;;17.40;99.90;;;;;;5029899;28;20047;-63
2023/07/13 05:08:09;;;;;;;2.25;1.60;;;17.40;99.90;;;;;;5031473;28;20064;-64
2023/07/13 05:10:36;;;;;;;4.45;1.52;;;17.40;99.90;;;;;;5027499;28;20395;-64
2023/07/13 05:13:03;;;;;;;8.95;1.88;;;17.40;99.90;;;;;;5030971;28;20049;-64
2023/07/13 05:15:30;;;;;;;3.20;1.60;;;17.40;99.90;;;;;;5029472;28;20049;-63
2023/07/13 05:17:56;;;;;;;3.30;1.40;;;17.50;99.90;;;;;;5029574;28;20041;-64
2023/07/13 05:20:23;;;;;;;2.28;1.40;;;17.40;99.90;;;;;;5027211;28;20128;-64
2023/07/13 05:22:50;;;;;;;4.70;1.30;;;17.40;99.90;;;;;;5022222;28;20034;-62
2023/07/13 05:25:17;;;;;;;1.73;1.55;;;17.50;99.90;;;;;;5029283;28;20555;-63
2023/07/13 05:27:45;;;;;;;2.60;1.60;;;17.60;99.90;;;;;;5030836;28;20564;-63
2023/07/13 05:30:13;;;;;;;6.03;2.00;;;17.80;99.90;;;;;;5029286;28;20494;-63
2023/07/13 05:32:39;;;;;;;2.05;1.50;;;17.80;99.90;;;;;;5022519;28;20049;-64
2023/07/13 05:35:07;;;;;;;1.50;1.23;;;17.90;99.90;;;;;;5028063;28;20045;-63
2023/07/13 05:37:33;;;;;;;1.77;1.48;;;18.00;99.90;;;;;;5030757;28;20037;-63
2023/07/13 05:40:00;;;;;;;1.88;1.38;;;18.00;99.90;;;;;;5021534;28;20041;-63
2023/07/13 05:42:27;;;;;;;4.15;1.90;;;17.90;99.90;;;;;;5030307;28;20041;-64
2023/07/13 05:44:54;;;;;;;3.10;1.27;;;18.00;99.90;;;;;;5029840;28;20037;-63
2023/07/13 05:47:20;;;;;;;3.03;1.80;;;18.10;99.90;;;;;;5030592;28;20050;-63
2023/07/13 05:49:47;;;;;;;5.57;2.13;;;18.20;99.90;;;;;;5033617;28;20037;-63
2023/07/13 05:52:14;;;;;;;5.53;2.28;;;18.30;99.90;;;;;;5034670;28;20433;-63
2023/07/13 05:54:41;;;;;;;7.22;2.35;;;18.40;99.90;;;;;;5025195;28;20034;-63
2023/07/13 05:57:08;;;;;;;2.88;1.80;;;18.50;99.90;;;;;;5033403;28;20240;-64
2023/07/13 05:59:35;;;;;;;3.08;2.00;;;18.50;99.90;;;;;;5017424;28;20394;-63
2023/07/13 06:02:02;;;;;;;4.28;1.90;;;18.50;99.90;;;;;;5024786;28;20034;-64
2023/07/13 06:04:29;;;;;;;2.13;1.60;;;18.40;99.90;;;;;;5026379;28;20037;-62
2023/07/13 06:06:56;;;;;;;3.92;2.10;;;18.50;99.90;;;;;;5033061;28;20045;-63
2023/07/13 06:09:22;;;;;;;5.22;2.47;;;18.40;99.90;;;;;;5033828;28;20037;-64
2023/07/13 06:11:49;;;;;;;5.38;2.20;;;18.50;99.90;;;;;;5030224;28;20046;-64
2023/07/13 06:14:16;;;;;;;5.15;2.47;;;18.40;99.90;;;;;;5027549;28;20047;-64
2023/07/13 06:16:42;;;;;;;5.20;2.88;;;18.60;99.90;;;;;;5033198;28;20049;-63
2023/07/13 06:19:09;;;;;;;5.75;2.70;;;18.50;99.90;;;;;;5033530;28;20045;-63
2023/07/13 06:21:36;;;;;;;5.28;2.72;;;18.60;99.90;;;;;;5016778;28;20038;-63
2023/07/13 06:24:03;;;;;;;5.72;2.63;;;18.60;99.90;;;;;;5033649;28;20033;-64
2023/07/13 06:26:30;;;;;;;8.00;2.75;;;18.70;99.90;;;;;;5024468;28;20045;-62
2023/07/13 06:28:57;;;;;;;5.88;3.00;;;18.80;99.90;;;;;;5024969;28;20133;-64
2023/07/13 06:31:23;;;;;;;8.10;2.58;;;18.80;99.90;;;;;;5031306;28;20041;-63
2023/07/13 06:33:50;;;;;;;7.15;2.65;;;18.90;99.90;;;;;;5025408;28;20079;-63
2023/07/13 06:36:17;;;;;;;7.57;2.92;;;19.00;99.90;;;;;;5030084;28;20077;-64
2023/07/13 06:38:44;;;;;;;7.60;2.88;;;19.10;99.90;;;;;;5017196;28;20506;-64
2023/07/13 06:41:11;;;;;;;3.38;2.70;;;19.30;99.90;;;;;;5024994;28;20065;-62
2023/07/13 06:43:38;;;;;;;8.50;2.70;;;19.30;99.90;;;;;;5033115;28;20037;-63
2023/07/13 06:46:05;;;;;;;6.80;3.53;;;19.30;99.90;;;;;;5030608;28;20395;-63
2023/07/13 06:48:32;;;;;;;7.13;2.53;;;19.30;99.90;;;;;;5026481;28;20517;-64
2023/07/13 06:50:58;;;;;;;5.55;2.13;;;19.30;99.90;;;;;;5031025;28;20057;-63
2023/07/13 06:53:25;;;;;;;3.78;2.63;;;19.40;99.90;;;;;;5033566;28;20395;-64
2023/07/13 06:55:52;;;;;;;7.40;3.00;;;19.40;99.90;;;;;;5031528;28;20137;-64
2023/07/13 06:58:19;;;;;;;5.85;3.28;;;19.40;99.90;;;;;;5032940;28;20037;-64
2023/07/13 07:00:46;;;;;;;7.03;2.67;;;19.30;99.90;;;;;;5031837;28;20041;-64
2023/07/13 07:03:13;;;;;;;5.68;3.08;;;19.20;99.90;;;;;;5027347;28;20198;-63
2023/07/13 07:05:40;;;;;;;;;;;19.20;99.90;;;;;;5031138;28;20523;-64
2023/07/13 07:08:07;;;;;;;6.50;3.22;;;19.10;99.90;;;;;;5031815;28;20240;-63
2023/07/13 07:10:34;;;;;;;8.93;2.97;;;19.10;99.90;;;;;;5031351;28;20063;-63
2023/07/13 07:13:03;;;;;;;6.53;2.90;;;19.10;99.90;;;;;;5032826;28;20485;-62
2023/07/13 07:15:30;;;;;;;7.97;3.33;;;19.10;99.90;;;;;;5031861;28;20046;-63
2023/07/13 07:17:56;;;;;;;;;;;19.10;99.90;;;;;;5012095;28;20049;-64
2023/07/13 07:20:23;;;;;;;5.32;3.40;;;19.10;99.90;;;;;;5027810;28;19921;-64
2023/07/13 07:22:50;;;;;;;4.50;3.08;;;19.10;99.90;;;;;;5031788;28;20029;-63
2023/07/13 07:25:17;;;;;;;7.70;3.53;;;19.10;99.90;;;;;;5032596;28;20037;-62
2023/07/13 07:27:44;;;;;;;5.85;3.65;;;19.10;99.90;;;;;;5024476;28;20327;-64
2023/07/13 07:30:14;;;;;;;6.75;3.90;;;19.10;99.90;;;;;;5024968;28;20044;-64
2023/07/13 07:32:44;;;;;;;8.80;4.13;;;19.20;99.90;;;;;;5031988;28;20042;-64
2023/07/13 07:35:14;;;;;;;4.60;3.15;;;19.20;99.90;;;;;;5026983;28;20049;-63
2023/07/13 07:37:40;;;;;;;8.15;3.10;;;19.20;99.90;;;;;;5025532;28;20316;-64
2023/07/13 07:40:10;;;;;;;6.20;3.08;;;19.30;99.90;;;;;;5023216;28;20056;-64
2023/07/13 07:42:40;;;;;;;3.85;2.65;;;19.20;99.90;;;;;;5032146;28;20045;-63
2023/07/13 07:45:07;;;;;;;7.72;3.58;;;19.20;99.90;;;;;;5023998;28;20060;-63
2023/07/13 07:47:34;;;;;;;;;;;19.30;99.90;;;;;;5028917;28;20124;-63
2023/07/13 07:50:00;;;;;;;5.55;2.78;;;19.20;99.90;;;;;;5029628;28;20393;-61
2023/07/13 07:52:27;;;;;;;3.33;2.28;;;19.40;99.90;;;;;;5025588;28;20049;-64
2023/07/13 07:54:54;;;;;;;4.13;3.00;;;19.60;99.90;;;;;;5028424;28;20041;-62
2023/07/13 07:57:24;;;;;;;4.60;2.97;;;19.80;99.90;;;;;;5029663;28;20048;-62
2023/07/13 07:59:53;;;;;;;6.28;2.75;;;20.10;99.90;;;;;;5025698;28;20037;-64
2023/07/13 08:02:24;;;;;;;6.20;2.42;;;20.10;99.90;;;;;;5023359;28;20104;-60
2023/07/13 08:04:54;;;;;;;3.65;2.30;;;20.10;99.90;;;;;;5031265;28;20539;-64
2023/07/13 08:07:24;;;;;;;4.13;2.72;;;20.10;99.90;;;;;;5031257;28;20037;-62
2023/07/13 08:09:54;;;;;;;5.53;2.72;;;20.20;99.90;;;;;;5029880;28;20044;-63
2023/07/13 08:12:21;;;;;;;4.78;2.38;;;20.40;99.90;;;;;;5026010;28;20406;-63
2023/07/13 08:14:53;;;;;;;5.78;2.55;;;20.60;99.90;;;;;;5030603;28;20034;-62
2023/07/13 08:17:20;;;;;;;6.72;2.85;;;20.90;99.90;;;;;;5030859;28;20087;-63
2023/07/13 08:19:47;;;;;;;4.90;2.40;;;21.00;99.90;;;;;;5021258;28;20042;-63
2023/07/13 08:22:14;;;;;;;5.60;2.35;;;21.10;99.90;;;;;;4997731;28;20042;-63
2023/07/13 08:24:45;;;;;;;4.90;2.45;;;21.20;99.90;;;;;;5030679;28;20041;-62
2023/07/13 08:27:12;;;;;;;4.63;2.28;;;21.10;99.90;;;;;;5029835;28;20040;-64
2023/07/13 08:29:39;;;;;;;6.22;2.67;;;21.40;99.90;;;;;;5031321;28;20513;-62
2023/07/13 08:32:09;;;;;;;6.20;2.85;;;22.10;99.90;;;;;;5012963;28;20068;-63
2023/07/13 08:34:36;;;;;;;2.47;1.63;;;22.50;99.90;;;;;;5030294;28;20107;-62
2023/07/13 08:37:03;;;;;;;3.08;2.10;;;22.40;99.90;;;;;;5030952;28;20465;-63
2023/07/13 08:39:31;;;;;;;6.63;2.20;;;22.40;99.90;;;;;;5030379;28;20046;-63
2023/07/13 08:42:04;;;;;;;2.78;2.22;;;22.30;99.90;;;;;;5030855;28;20379;-63
2023/07/13 08:44:50;;;;;;;4.72;2.22;;;22.20;99.90;;;;;;5029855;28;20108;-62
2023/07/13 08:47:20;;;;;;;5.80;2.03;;;21.90;99.90;;;;;;5030064;28;20038;-63
2023/07/13 08:49:47;;;;;;;4.93;1.83;;;21.60;99.90;;;;;;5031084;28;20048;-62
2023/07/13 08:52:24;;;;;;;2.72;1.60;;;21.40;99.90;;;;;;5024424;28;20052;-62
2023/07/13 08:54:55;;;;;;;2.67;1.83;;;21.60;99.90;;;;;;5030851;28;20042;-63
2023/07/13 08:57:30;;;;;;;4.35;2.00;;;21.40;99.90;;;;;;5023894;28;20045;-62
2023/07/13 08:59:58;;;;;;;2.42;1.58;;;21.00;99.90;;;;;;5030575;28;20514;-62
2023/07/13 09:02:46;;;;;;;4.13;1.58;;;20.60;99.90;;;;;;5031094;28;20033;-62
2023/07/13 09:05:21;;;;;;;4.22;2.20;;;20.00;99.90;;;;;;5024593;28;20084;-62
2023/07/13 09:08:13;;;;;;;9.45;1.73;;;19.50;99.90;;;;;;5030340;28;20052;-62
2023/07/13 09:10:46;;;;;;;3.58;1.83;;;19.30;99.90;;;;;;5029744;28;20075;-63
2023/07/13 09:13:31;;;;;;;3.08;1.95;;;19.20;99.90;;;;;;5025533;28;20055;-63
2023/07/13 09:16:00;;;;;;;5.85;1.80;;;19.30;99.90;;;;;;5029717;28;20045;-63
2023/07/13 09:18:33;;;;;;;7.60;2.53;;;19.30;99.90;;;;;;5029187;28;20398;-63
2023/07/13 09:21:02;;;;;;;6.10;1.85;;;19.40;99.90;;;;;;5030175;28;20061;-62
2023/07/13 09:23:30;;;;;;;9.70;2.70;;;19.40;99.90;;;;;;5020784;28;20490;-61
2023/07/13 09:26:20;;;;;;;6.43;1.90;;;19.50;99.90;;;;;;5023177;28;20045;-61
2023/07/13 09:28:57;;;;;;;7.28;1.88;;;19.40;99.90;;;;;;5031063;28;20047;-63
2023/07/13 09:31:33;;;;;;;4.63;2.00;;;19.40;99.90;;;;;;5034860;28;20046;-61
2023/07/13 09:34:01;;;;;;;4.65;2.13;;;19.30;99.90;;;;;;5034604;28;20053;-62
2023/07/13 09:36:30;;;;;;;3.20;1.83;;;19.30;99.90;;;;;;5032927;28;20389;-63
2023/07/13 09:39:03;;;;;;;6.10;1.75;;;19.30;99.90;;;;;;5034531;28;20528;-62
2023/07/13 09:42:07;;;;;;;6.22;2.20;;;19.40;99.90;;;;;;5018479;28;20040;-63
2023/07/13 09:44:43;;;;;;;3.92;2.20;;;19.60;99.90;;;;;;5028533;28;20398;-62
2023/07/13 09:47:19;;;;;;;6.70;2.58;;;19.70;99.90;;;;;;5033516;28;20042;-63
2023/07/13 09:49:46;;;;;;;6.43;3.00;;;19.60;99.90;;;;;;5034328;28;20049;-63
2023/07/13 09:52:15;;;;;;;5.93;2.60;;;19.60;99.90;;;;;;5028222;28;20045;-63
2023/07/13 09:54:50;;;;;;;4.32;2.60;;;19.50;99.90;;;;;;5034018;28;20053;-63
2023/07/13 09:57:22;;;;;;;3.92;2.03;;;19.30;99.90;;;;;;5033400;28;20045;-63
2023/07/13 10:00:00;;;;;;;5.18;2.30;;;19.20;99.90;;;;;;5033216;28;20076;-63
2023/07/13 10:02:33;;;;;;;10.85;2.50;;;19.10;99.90;;;;;;5034029;28;20099;-63
2023/07/13 10:05:13;;;;;;;6.03;2.63;;;19.10;99.90;;;;;;5033325;28;20413;-63
2023/07/13 10:07:44;;;;;;;6.50;2.80;;;19.20;99.90;;;;;;5032734;28;20037;-63
2023/07/13 10:10:21;;;;;;;5.53;2.95;;;19.10;99.90;;;;;;5029369;28;20056;-62
2023/07/13 10:12:50;;;;;;;4.40;2.40;;;19.30;99.90;;;;;;5031856;28;20057;-63
2023/07/13 10:15:20;;;;;;;6.55;2.67;;;19.50;99.90;;;;;;5029584;28;20063;-63
2023/07/13 10:17:52;;;;;;;5.05;2.50;;;19.60;99.90;;;;;;5032509;28;20048;-62
2023/07/13 10:20:21;;;;;;;7.10;2.72;;;19.70;99.90;;;;;;5034210;28;20041;-61
2023/07/13 10:22:48;;;;;;;4.22;2.35;;;19.70;99.90;;;;;;5027813;28;20040;-63
2023/07/13 10:25:22;;;;;;;6.05;2.05;;;19.70;99.90;;;;;;5033684;28;20038;-63
2023/07/13 10:28:10;;;;;;;4.13;1.85;;;19.50;99.90;;;;;;5030350;28;20045;-62
2023/07/13 10:30:41;;;;;;;7.22;2.35;;;19.30;99.90;;;;;;5015695;28;20389;-63
2023/07/13 10:33:12;;;;;;;6.53;2.72;;;19.10;99.90;;;;;;5032312;28;20065;-62
2023/07/13 10:35:42;;;;;;;8.27;3.00;;;18.80;99.90;;;;;;5031406;28;20087;-63
2023/07/13 10:38:16;;;;;;;6.50;2.67;;;18.70;99.90;;;;;;5027894;28;20057;-63
2023/07/13 10:40:59;;;;;;;5.30;2.90;;;18.60;99.90;;;;;;5032683;28;20087;-63
2023/07/13 10:43:37;;;;;;;3.58;2.42;;;18.60;99.90;;;;;;5029361;28;20042;-63
2023/07/13 10:46:08;;;;;;;6.55;2.47;;;18.60;99.90;;;;;;5025825;28;20065;-63
2023/07/13 10:48:36;;;;;;;8.23;3.03;;;18.70;99.90;;;;;;5032418;28;20072;-63
2023/07/13 10:51:06;;;;;;;4.82;3.22;;;18.60;99.90;;;;;;5015362;28;20059;-63
2023/07/13 10:53:39;;;;;;;3.38;2.75;;;18.60;99.90;;;;;;5021593;28;20499;-63
2023/07/13 10:56:23;;;;;;;4.70;3.45;;;18.50;99.90;;;;;;5029077;28;20499;-62
2023/07/13 10:59:20;;;;;;;8.25;3.10;;;18.50;99.90;;;;;;5033127;28;20033;-63
2023/07/13 11:02:01;;;;;;;8.13;3.00;;;18.50;99.90;;;;;;5033110;28;20037;-63
2023/07/13 11:04:41;;;;;;;4.70;3.30;;;18.30;99.90;;;;;;5031989;28;20087;-62
2023/07/13 11:07:29;;;;;;;6.25;2.85;;;18.20;99.90;;;;;;5032862;28;20060;-62
2023/07/13 11:10:03;;;;;;;10.48;3.28;;;18.20;99.90;;;;;;5028160;28;20077;-63
2023/07/13 11:12:53;;;;;;;6.82;3.50;;;18.00;99.90;;;;;;5032660;28;20061;-62
2023/07/13 11:15:31;;;;;;;9.52;4.47;;;18.00;99.90;;;;;;5027330;28;20041;-63
2023/07/13 11:18:03;;;;;;;8.52;4.10;;;17.80;99.90;;;;;;5032145;28;20137;-61
2023/07/13 11:20:36;;;;;;;16.38;6.70;;;17.60;99.90;;;;;;5032317;28;20041;-62
2023/07/13 11:23:11;;;;;;;11.45;5.43;;;17.50;99.90;;;;;;5031713;28;20049;-62
2023/07/13 11:25:38;;;;;;;12.02;5.68;;;17.40;99.90;;;;;;5013113;28;20053;-63
2023/07/13 11:28:15;;;;;;;13.48;5.10;;;17.20;99.90;;;;;;5031319;28;20057;-62
2023/07/13 11:30:52;;;;;;;20.20;6.45;;;16.90;99.90;;;;;;5025886;28;20041;-63
2023/07/13 11:33:28;;;;;;;10.17;5.07;;;16.60;99.90;;;;;;5027894;28;20045;-63
2023/07/13 11:36:03;;;;;;;16.13;4.78;;;16.40;99.90;;;;;;5032535;28;20430;-63
2023/07/13 11:38:41;;;;;;;10.82;4.95;;;16.10;99.90;;;;;;5031973;28;20051;-61
2023/07/13 11:41:21;;;;;;;10.32;4.40;;;15.90;99.90;;;;;;5031412;28;20041;-63
2023/07/13 11:43:53;;;;;;;13.93;4.75;;;15.70;99.90;;;;;;5016229;28;20033;-61
2023/07/13 11:46:24;;;;;;;13.32;4.97;;;15.60;99.90;;;;;;5029094;28;20045;-61
2023/07/13 11:48:52;;;;;;;10.93;4.68;;;15.50;99.90;;;;;;5018654;28;20125;-63
2023/07/13 11:51:35;;;;;;;12.55;5.05;;;15.50;99.90;;;;;;5028903;28;20403;-61
2023/07/13 11:54:29;;;;;;;19.30;5.85;;;15.50;99.90;;;;;;5031667;28;20064;-63
2023/07/13 11:57:06;;;;;;;12.70;4.82;;;15.70;99.90;;;;;;5030577;28;20041;-62
2023/07/13 11:59:37;;;;;;;10.00;4.77;;;16.00;99.90;;;;;;5031158;28;20103;-62
2023/07/13 12:02:23;;;;;;;9.30;4.75;;;16.40;99.90;;;;;;5031914;28;20128;-63
2023/07/13 12:04:52;;;;;;;10.07;5.25;;;16.80;99.90;;;;;;5003643;28;20038;-61
2023/07/13 12:07:19;;;;;;;8.38;3.72;;;17.20;99.90;;;;;;5019771;28;20052;-62
2023/07/13 12:09:46;;;;;;;7.65;4.05;;;17.30;99.90;;;;;;5031079;28;20045;-63
2023/07/13 12:12:17;;;;;;;11.50;4.30;;;17.50;99.90;;;;;;5031685;28;20049;-63
2023/07/13 12:14:44;;;;;;;4.78;3.20;;;17.70;99.90;;;;;;5030552;28;20490;-63
2023/07/13 12:17:20;;;;;;;10.05;3.85;;;18.00;99.90;;;;;;5031085;28;20067;-62
2023/07/13 12:19:52;;;;;;;8.40;3.92;;;18.60;99.90;;;;;;5026053;28;20073;-63
2023/07/13 12:22:20;;;;;;;5.63;3.50;;;19.00;99.90;;;;;;5020099;28;20147;-63
2023/07/13 12:24:48;;;;;;;9.32;4.88;;;19.30;99.90;;;;;;5031310;28;20474;-62
2023/07/13 12:27:25;;;;;;;10.43;3.40;;;19.40;99.90;;;;;;5030076;28;20042;-63
2023/07/13 12:29:58;;;;;;;4.60;3.63;;;19.40;99.90;;;;;;5031681;28;20072;-63
2023/07/13 12:32:27;;;;;;;8.07;4.20;;;19.50;99.90;;;;;;5030548;28;20049;-62
2023/07/13 12:34:56;;;;;;;11.45;4.90;;;19.60;99.90;;;;;;5031100;28;20103;-63
2023/07/13 12:37:24;;;;;;;6.75;4.15;;;19.80;99.90;;;;;;5029789;28;20140;-63
2023/07/13 12:39:51;;;;;;;9.98;3.78;;;19.80;99.90;;;;;;5031147;28;20117;-63
2023/07/13 12:42:20;;;;;;;10.75;4.70;;;19.70;99.90;;;;;;5030538;28;20417;-63
2023/07/13 12:44:47;;;;;;;7.65;4.32;;;19.90;99.90;;;;;;5030459;28;20034;-62
2023/07/13 12:47:15;;;;;;;7.15;3.95;;;20.40;99.90;;;;;;5031111;28;20045;-62
2023/07/13 12:49:50;;;;;;;8.88;4.25;;;20.80;99.90;;;;;;5029377;28;20395;-63
2023/07/13 12:52:22;;;;;;;7.50;3.80;;;20.80;99.90;;;;;;5031226;28;20045;-63
2023/07/13 12:55:26;;;;;;;10.25;3.20;;;20.90;99.90;;;;;;5030126;28;20053;-63
2023/07/13 12:58:01;;;;;;;4.40;2.92;;;21.20;99.90;;;;;;5019806;28;20342;-63
2023/07/13 13:00:29;;;;;;;7.10;3.15;;;21.40;99.90;;;;;;5031092;28;20045;-63
2023/07/13 13:02:57;;;;;;;6.07;2.63;;;21.60;99.90;;;;;;5030129;28;20041;-64